Stations météo

réclame
Mon MeteoGroup
St.Catherine`s Point, Grande-Bretagne (3866): Température de l'air & dewpoint: 15.06.2018 16:00:00 - 21.06.2018 16:00:00 (BST)St.Catherine`s Point, Grande-Bretagne (3866): Vitesse du vent & gusts: 15.06.2018 16:00:00 - 21.06.2018 16:00:00 (BST)St.Catherine`s Point, Grande-Bretagne (3866): Direction du vent: 15.06.2018 16:00:00 - 21.06.2018 16:00:00 (BST)St.Catherine`s Point, Grande-Bretagne (3866): reduced air pressure: 15.06.2018 16:00:00 - 21.06.2018 16:00:00 (BST)St.Catherine`s Point, Grande-Bretagne (3866): Quantités de précipitations: 15.06.2018 16:00:00 - 21.06.2018 16:00:00 (BST)
Date & Time tt [°C] td [°C] ff [km/h] ff [knt] fx [km/h] fx [knt] dd ppp [hPa] rr [mm]
21.06.2018 16:00:00 18,9 2,8 9 5 - - NE 1026,8 0,0
21.06.2018 15:00:00 18,6 4,5 11 6 - - NNE 1026,6 0,0
21.06.2018 14:00:00 18,9 6,2 11 6 - - NW 1026,2 0,0
21.06.2018 13:00:00 18,2 6,1 11 6 - - N 1026,1 0,0
21.06.2018 12:00:00 16,0 4,5 13 7 - - NW 1026,2 0,0
21.06.2018 11:00:00 15,0 5,9 15 8 - - NW 1026,2 0,0
21.06.2018 10:00:00 14,0 5,8 15 8 - - NW 1026,0 0,0
21.06.2018 09:00:00 13,6 6,0 11 6 - - WNW 1025,4 0,0
21.06.2018 08:00:00 12,5 6,7 15 8 - - NW 1025,1 0,0
21.06.2018 07:00:00 11,6 7,7 9 5 - - WNW 1024,4 0,0
21.06.2018 06:00:00 11,5 7,3 15 8 - - WNW 1023,9 0,0
21.06.2018 05:00:00 11,9 6,7 15 8 - - WNW 1023,2 0,0
21.06.2018 04:00:00 12,2 6,4 11 6 - - WNW 1022,6 0,0
21.06.2018 03:00:00 13,3 6,4 15 8 - - NW 1022,1 0,0
21.06.2018 02:00:00 13,8 9,5 16 9 - - NW 1021,3 0,0
21.06.2018 01:00:00 14,7 12,7 13 7 - - WNW 1021,1 0,0
21.06.2018 00:00:00 15,4 13,2 13 7 - - NW 1020,8 0,0
20.06.2018 23:00:00 14,9 14,8 11 6 - - WNW 1020,6 0,0
20.06.2018 22:00:00 14,5 14,5 15 8 - - W 1020,8 0,0
20.06.2018 21:00:00 14,3 14,3 18 10 - - W 1020,2 0,0
20.06.2018 20:00:00 14,2 14,1 18 10 - - W 1020,3 0,0
20.06.2018 19:00:00 14,2 14,0 22 12 - - W 1020,4 0,0
20.06.2018 18:00:00 14,3 13,9 21 11 - - W 1020,7 0,0
20.06.2018 17:00:00 14,7 13,9 21 11 - - W 1021,0 0,0
20.06.2018 16:00:00 15,0 13,9 22 12 - - W 1021,7 0,0
20.06.2018 15:00:00 15,1 13,8 24 13 - - W 1021,7 0,0
20.06.2018 14:00:00 15,5 14,4 24 13 - - W 1021,8 0,0
20.06.2018 13:00:00 14,8 14,0 26 14 - - WSW 1022,1 0,0
20.06.2018 12:00:00 15,0 14,2 26 14 - - WSW 1022,3 0,0
20.06.2018 11:00:00 15,2 14,3 22 12 - - W 1022,3 0,0
20.06.2018 10:00:00 14,5 14,2 24 13 - - WSW 1022,4 0,0
20.06.2018 09:00:00 14,4 14,2 24 13 - - W 1022,6 0,0
20.06.2018 08:00:00 14,0 13,8 28 15 - - W 1022,5 0,0
20.06.2018 07:00:00 14,0 13,7 26 14 - - W 1022,4 0,0
20.06.2018 06:00:00 14,2 14,0 24 13 - - WSW 1022,2 0,0
20.06.2018 05:00:00 14,4 14,2 24 13 - - WSW 1022,2 0,0
20.06.2018 04:00:00 14,3 14,2 16 9 - - W 1022,4 0,0
20.06.2018 03:00:00 14,2 14,2 16 9 - - W 1022,5 0,0
20.06.2018 02:00:00 13,8 13,7 16 9 - - W 1022,8 0,0
20.06.2018 01:00:00 14,0 13,8 21 11 - - W 1023,2 0,0
20.06.2018 00:00:00 14,6 14,3 21 11 - - W 1023,3 0,0
19.06.2018 23:00:00 14,9 14,4 18 10 - - W 1023,7 0,0
19.06.2018 22:00:00 15,1 14,5 16 9 - - W 1023,9 0,0
19.06.2018 21:00:00 15,2 14,1 15 8 - - WNW 1023,7 0,0
19.06.2018 20:00:00 15,4 14,7 11 6 - - W 1024,0 0,0
19.06.2018 19:00:00 15,0 14,6 15 8 - - W 1024,3 0,0
19.06.2018 18:00:00 15,5 14,8 16 9 - - W 1024,5 0,0
19.06.2018 17:00:00 15,4 14,5 13 7 - - W 1024,6 0,0
19.06.2018 16:00:00 15,9 14,5 15 8 - - W 1024,8 0,0
19.06.2018 15:00:00 17,3 15,7 21 11 - - W 1024,8 0,0
19.06.2018 14:00:00 17,7 15,7 16 9 - - W 1024,6 0,0
19.06.2018 13:00:00 16,2 14,5 22 12 - - W 1025,0 0,0
19.06.2018 12:00:00 17,2 15,2 24 13 - - W 1024,8 0,0
19.06.2018 11:00:00 16,1 15,2 24 13 - - W 1024,6 0,0
19.06.2018 10:00:00 15,1 14,7 24 13 - - W 1024,8 0,0
19.06.2018 09:00:00 15,0 14,9 29 16 - - WSW 1024,5 0,0
19.06.2018 08:00:00 14,8 14,7 24 13 - - WSW 1024,2 0,0
19.06.2018 07:00:00 14,6 14,5 16 9 - - W 1024,0 0,0
19.06.2018 06:00:00 14,4 14,4 29 16 - - WSW 1023,5 0,0
19.06.2018 05:00:00 14,6 14,6 26 14 - - W 1023,2 0,0
19.06.2018 04:00:00 14,7 14,6 29 16 - - W 1022,9 0,0
19.06.2018 03:00:00 14,7 14,6 31 17 46 25 W 1023,0 0,0
19.06.2018 02:00:00 14,6 14,5 34 18 46 25 W 1022,6 0,0
19.06.2018 01:00:00 14,8 14,6 37 20 48 26 W 1022,7 0,0
19.06.2018 00:00:00 14,9 14,7 31 17 46 25 W 1022,9 0,0
18.06.2018 23:00:00 14,9 14,7 35 19 48 26 W 1022,9 0,0
18.06.2018 22:00:00 14,9 14,7 35 19 46 25 W 1022,7 0,0
18.06.2018 21:00:00 14,6 14,5 31 17 50 27 W 1022,3 0,0
18.06.2018 20:00:00 14,7 14,4 29 16 48 26 W 1022,3 0,0
18.06.2018 19:00:00 14,7 14,0 37 20 46 25 WSW 1022,1 0,0
18.06.2018 18:00:00 14,9 13,6 37 20 - - WSW 1021,9 0,0
18.06.2018 17:00:00 15,6 13,1 34 18 46 25 W 1022,1 0,0
18.06.2018 16:00:00 16,1 13,1 29 16 - - W 1021,8 0,0
18.06.2018 15:00:00 16,6 12,9 29 16 - - W 1021,9 0,0
18.06.2018 14:00:00 16,6 12,6 31 17 - - W 1021,9 0,0
18.06.2018 13:00:00 15,9 13,3 31 17 - - WSW 1021,6 0,0
18.06.2018 12:00:00 16,9 12,9 31 17 - - W 1021,6 0,0
18.06.2018 11:00:00 16,3 12,4 31 17 - - W 1020,9 0,0
18.06.2018 10:00:00 15,4 13,1 29 16 - - W 1020,7 0,0
18.06.2018 09:00:00 14,8 13,7 28 15 - - W 1020,5 0,0
18.06.2018 08:00:00 14,4 13,4 29 16 - - W 1019,9 0,0
18.06.2018 07:00:00 14,4 13,3 29 16 - - WSW 1019,1 0,0
18.06.2018 06:00:00 14,4 13,5 26 14 - - W 1018,6 0,0
18.06.2018 05:00:00 14,7 13,8 26 14 - - W 1018,4 0,0
18.06.2018 04:00:00 14,1 13,8 29 16 - - WSW 1018,2 0,0
18.06.2018 03:00:00 14,3 14,3 29 16 - - W 1018,1 0,0
18.06.2018 02:00:00 14,2 14,1 34 18 - - W 1018,0 0,0
18.06.2018 01:00:00 14,2 14,2 34 18 - - WSW 1018,0 0,0
18.06.2018 00:00:00 14,2 14,2 31 17 - - WSW 1017,9 0,0
17.06.2018 23:00:00 14,2 14,1 31 17 - - WSW 1018,1 0,0
17.06.2018 22:00:00 14,3 14,1 29 16 - - WSW 1018,0 0,0
17.06.2018 21:00:00 14,3 14,2 26 14 - - WSW 1017,6 0,0
17.06.2018 20:00:00 14,2 14,0 28 15 - - WSW 1017,6 0,2
17.06.2018 19:00:00 14,1 13,7 29 16 - - SW 1017,8 0,0
17.06.2018 18:00:00 13,6 13,3 26 14 - - SW 1017,8 0,0
17.06.2018 17:00:00 13,4 12,9 28 15 - - SW 1018,1 0,0
17.06.2018 16:00:00 13,4 12,6 34 18 48 26 WSW 1018,0 0,0
17.06.2018 15:00:00 14,2 12,3 35 19 46 25 WSW 1018,4 0,0
17.06.2018 14:00:00 14,4 12,1 37 20 46 25 WSW 1018,3 0,0
17.06.2018 13:00:00 14,9 12,4 34 18 - - WSW 1018,3 0,0
17.06.2018 12:00:00 14,3 12,4 31 17 - - WSW 1018,2 0,0
17.06.2018 11:00:00 14,7 12,3 34 18 - - WSW 1018,0 0,0
17.06.2018 10:00:00 14,6 11,8 31 17 - - WSW 1017,9 0,0
17.06.2018 09:00:00 14,8 12,1 31 17 - - WSW 1017,8 0,0
17.06.2018 08:00:00 14,6 11,9 28 15 - - W 1017,6 0,2
17.06.2018 07:00:00 13,9 11,9 29 16 - - W 1017,3 0,0
17.06.2018 06:00:00 13,9 11,5 29 16 - - W 1016,7 0,0
17.06.2018 05:00:00 14,1 10,9 31 17 - - W 1016,3 0,0
17.06.2018 04:00:00 14,1 11,2 31 17 - - W 1016,2 0,0
17.06.2018 03:00:00 14,2 11,9 31 17 - - W 1016,3 0,0
17.06.2018 02:00:00 14,3 11,5 29 16 - - W 1016,4 0,0
17.06.2018 01:00:00 14,3 12,3 34 18 48 26 W 1016,4 0,0
17.06.2018 00:00:00 14,1 12,0 35 19 46 25 W 1016,3 0,0
16.06.2018 23:00:00 14,1 11,9 35 19 48 26 W 1015,9 0,0
16.06.2018 22:00:00 14,3 11,9 37 20 50 27 W 1015,6 0,0
16.06.2018 21:00:00 14,1 12,0 42 23 52 28 WSW 1014,9 0,0
16.06.2018 20:00:00 14,4 12,4 41 22 46 25 WSW 1014,8 0,0
16.06.2018 19:00:00 14,5 12,5 37 20 50 27 WSW 1014,8 0,0
16.06.2018 18:00:00 15,0 13,0 35 19 46 25 WSW 1014,7 0,0
16.06.2018 17:00:00 14,7 13,2 34 18 - - WSW 1014,6 0,0
16.06.2018 16:00:00 14,1 13,0 34 18 46 25 WSW 1015,1 0,0
16.06.2018 15:00:00 13,8 13,0 31 17 - - WSW 1015,2 0,0
16.06.2018 14:00:00 15,0 12,6 26 14 - - WSW 1015,4 0,0
16.06.2018 13:00:00 14,2 12,2 31 17 - - WSW 1015,7 0,0
16.06.2018 12:00:00 14,7 12,0 31 17 - - WSW 1015,7 0,0
16.06.2018 11:00:00 14,3 12,1 28 15 - - WSW 1015,9 0,0
16.06.2018 10:00:00 14,1 11,8 24 13 - - WSW 1015,8 0,0
16.06.2018 09:00:00 14,4 11,6 26 14 - - WSW 1015,8 0,0
16.06.2018 08:00:00 14,0 11,8 24 13 - - WSW 1015,6 0,0
16.06.2018 07:00:00 13,9 11,9 26 14 - - WSW 1015,5 0,0
16.06.2018 06:00:00 14,0 11,7 26 14 - - WSW 1015,3 0,0
16.06.2018 05:00:00 13,7 11,8 22 12 - - W 1015,2 0,0
16.06.2018 04:00:00 14,0 11,9 24 13 - - WSW 1015,6 0,0
16.06.2018 03:00:00 13,9 11,8 22 12 - - W 1015,7 0,0
16.06.2018 02:00:00 14,1 12,2 18 10 - - W 1016,1 0,0
16.06.2018 01:00:00 14,1 12,2 21 11 - - W 1016,4 0,0
16.06.2018 00:00:00 14,0 12,6 21 11 - - W 1016,6 0,0
15.06.2018 23:00:00 14,2 12,3 21 11 - - W 1016,7 0,0
15.06.2018 22:00:00 14,0 12,6 24 13 - - W 1016,9 0,0
15.06.2018 21:00:00 14,0 12,4 24 13 - - W 1016,9 0,0
15.06.2018 20:00:00 14,5 12,4 22 12 - - W 1017,1 0,0
15.06.2018 19:00:00 14,7 11,7 24 13 - - W 1017,0 0,0
15.06.2018 18:00:00 15,0 11,7 26 14 - - W 1017,3 0,0
15.06.2018 17:00:00 15,9 10,6 24 13 - - W 1017,6 0,0
15.06.2018 16:00:00 16,4 12,1 22 12 - - W 1018,0 0,0

tt = Température de l'air
td = dewpoint
ff = Vitesse du vent
fx = gusts
dd = Direction du vent
ppp = reduced air pressure
rr = Quantités de précipitations

stations d'obs. à proximité